sensor_id;sensor_type;location;lat;lon;timestamp;P1;durP1;ratioP1;P2;durP2;ratioP2
20287;SDS011;10303;51.960;8.372;2023-03-03T00:01:29;7.23;;;4.67;;
20287;SDS011;10303;51.960;8.372;2023-03-03T00:03:57;5.10;;;3.80;;
20287;SDS011;10303;51.960;8.372;2023-03-03T00:06:23;6.57;;;3.73;;
20287;SDS011;10303;51.960;8.372;2023-03-03T00:08:51;6.60;;;3.93;;
20287;SDS011;10303;51.960;8.372;2023-03-03T00:11:17;7.97;;;4.53;;
20287;SDS011;10303;51.960;8.372;2023-03-03T00:13:47;7.30;;;4.60;;
20287;SDS011;10303;51.960;8.372;2023-03-03T00:19:14;7.00;;;4.23;;
20287;SDS011;10303;51.960;8.372;2023-03-03T00:21:47;8.90;;;5.13;;
20287;SDS011;10303;51.960;8.372;2023-03-03T00:24:23;7.37;;;3.70;;
20287;SDS011;10303;51.960;8.372;2023-03-03T00:26:56;11.33;;;6.30;;
20287;SDS011;10303;51.960;8.372;2023-03-03T00:29:40;9.57;;;5.10;;
20287;SDS011;10303;51.960;8.372;2023-03-03T00:32:22;9.83;;;5.17;;
20287;SDS011;10303;51.960;8.372;2023-03-03T00:34:52;10.03;;;4.97;;
20287;SDS011;10303;51.960;8.372;2023-03-03T00:39:57;5.77;;;4.50;;
20287;SDS011;10303;51.960;8.372;2023-03-03T00:42:48;9.10;;;4.57;;
20287;SDS011;10303;51.960;8.372;2023-03-03T00:45:30;8.90;;;5.00;;
20287;SDS011;10303;51.960;8.372;2023-03-03T00:53:45;13.07;;;6.20;;
20287;SDS011;10303;51.960;8.372;2023-03-03T00:56:10;13.77;;;6.43;;
20287;SDS011;10303;51.960;8.372;2023-03-03T00:58:36;11.63;;;5.27;;
20287;SDS011;10303;51.960;8.372;2023-03-03T01:01:02;8.83;;;4.80;;
20287;SDS011;10303;51.960;8.372;2023-03-03T01:03:38;11.17;;;5.27;;
20287;SDS011;10303;51.960;8.372;2023-03-03T01:06:04;10.87;;;5.17;;
20287;SDS011;10303;51.960;8.372;2023-03-03T01:08:31;8.33;;;4.93;;
20287;SDS011;10303;51.960;8.372;2023-03-03T01:10:58;12.60;;;6.13;;
20287;SDS011;10303;51.960;8.372;2023-03-03T01:13:30;14.87;;;6.40;;
20287;SDS011;10303;51.960;8.372;2023-03-03T01:15:58;14.50;;;5.93;;
20287;SDS011;10303;51.960;8.372;2023-03-03T01:18:26;11.97;;;5.20;;
20287;SDS011;10303;51.960;8.372;2023-03-03T01:20:53;12.87;;;5.80;;
20287;SDS011;10303;51.960;8.372;2023-03-03T01:23:19;12.60;;;5.33;;
20287;SDS011;10303;51.960;8.372;2023-03-03T01:25:45;18.40;;;8.00;;
20287;SDS011;10303;51.960;8.372;2023-03-03T01:28:11;18.03;;;7.50;;
20287;SDS011;10303;51.960;8.372;2023-03-03T01:30:37;17.03;;;6.47;;
20287;SDS011;10303;51.960;8.372;2023-03-03T01:33:03;16.43;;;6.47;;
20287;SDS011;10303;51.960;8.372;2023-03-03T01:35:30;11.20;;;5.77;;
20287;SDS011;10303;51.960;8.372;2023-03-03T01:37:56;10.53;;;6.10;;
20287;SDS011;10303;51.960;8.372;2023-03-03T01:40:24;12.23;;;5.97;;
20287;SDS011;10303;51.960;8.372;2023-03-03T01:42:53;10.27;;;5.97;;
20287;SDS011;10303;51.960;8.372;2023-03-03T01:45:22;9.00;;;4.97;;
20287;SDS011;10303;51.960;8.372;2023-03-03T01:48:00;7.80;;;5.50;;
20287;SDS011;10303;51.960;8.372;2023-03-03T01:53:05;11.63;;;5.57;;
20287;SDS011;10303;51.960;8.372;2023-03-03T01:55:42;16.73;;;7.13;;
20287;SDS011;10303;51.960;8.372;2023-03-03T01:58:25;14.33;;;6.07;;
20287;SDS011;10303;51.960;8.372;2023-03-03T02:00:58;16.20;;;6.10;;
20287;SDS011;10303;51.960;8.372;2023-03-03T02:03:38;15.90;;;5.87;;
20287;SDS011;10303;51.960;8.372;2023-03-03T02:06:07;15.80;;;6.77;;
20287;SDS011;10303;51.960;8.372;2023-03-03T02:08:41;12.57;;;4.80;;
20287;SDS011;10303;51.960;8.372;2023-03-03T02:11:18;12.87;;;6.63;;
20287;SDS011;10303;51.960;8.372;2023-03-03T02:13:46;13.63;;;7.53;;
20287;SDS011;10303;51.960;8.372;2023-03-03T02:16:12;14.80;;;6.40;;
20287;SDS011;10303;51.960;8.372;2023-03-03T02:18:39;10.10;;;5.40;;
20287;SDS011;10303;51.960;8.372;2023-03-03T02:21:13;14.87;;;7.07;;
20287;SDS011;10303;51.960;8.372;2023-03-03T02:23:56;16.37;;;7.17;;
20287;SDS011;10303;51.960;8.372;2023-03-03T02:26:34;18.50;;;7.70;;
20287;SDS011;10303;51.960;8.372;2023-03-03T02:29:07;13.53;;;6.27;;
20287;SDS011;10303;51.960;8.372;2023-03-03T02:31:36;13.90;;;6.40;;
20287;SDS011;10303;51.960;8.372;2023-03-03T02:34:03;12.63;;;6.97;;
20287;SDS011;10303;51.960;8.372;2023-03-03T02:36:31;12.53;;;5.87;;
20287;SDS011;10303;51.960;8.372;2023-03-03T02:41:57;13.23;;;5.63;;
20287;SDS011;10303;51.960;8.372;2023-03-03T02:44:58;13.40;;;5.93;;
20287;SDS011;10303;51.960;8.372;2023-03-03T02:47:24;16.60;;;6.83;;
20287;SDS011;10303;51.960;8.372;2023-03-03T02:49:50;14.13;;;6.33;;
20287;SDS011;10303;51.960;8.372;2023-03-03T02:52:16;16.77;;;7.20;;
20287;SDS011;10303;51.960;8.372;2023-03-03T02:54:44;13.43;;;6.80;;
20287;SDS011;10303;51.960;8.372;2023-03-03T02:57:11;16.30;;;7.47;;
20287;SDS011;10303;51.960;8.372;2023-03-03T02:59:36;17.63;;;7.07;;
20287;SDS011;10303;51.960;8.372;2023-03-03T03:02:11;21.50;;;7.90;;
20287;SDS011;10303;51.960;8.372;2023-03-03T03:04:37;17.57;;;6.77;;
20287;SDS011;10303;51.960;8.372;2023-03-03T03:07:03;20.10;;;7.57;;
20287;SDS011;10303;51.960;8.372;2023-03-03T03:09:31;20.83;;;7.77;;
20287;SDS011;10303;51.960;8.372;2023-03-03T03:11:57;18.63;;;7.70;;
20287;SDS011;10303;51.960;8.372;2023-03-03T03:14:27;14.40;;;7.17;;
20287;SDS011;10303;51.960;8.372;2023-03-03T03:16:54;15.00;;;6.63;;
20287;SDS011;10303;51.960;8.372;2023-03-03T03:19:19;16.27;;;7.40;;
20287;SDS011;10303;51.960;8.372;2023-03-03T03:21:46;15.83;;;7.47;;
20287;SDS011;10303;51.960;8.372;2023-03-03T03:24:12;15.53;;;6.83;;
20287;SDS011;10303;51.960;8.372;2023-03-03T03:26:42;13.40;;;7.00;;
20287;SDS011;10303;51.960;8.372;2023-03-03T03:29:08;14.07;;;7.03;;
20287;SDS011;10303;51.960;8.372;2023-03-03T03:31:35;11.77;;;6.47;;
20287;SDS011;10303;51.960;8.372;2023-03-03T03:34:02;14.43;;;6.87;;
20287;SDS011;10303;51.960;8.372;2023-03-03T03:36:28;15.67;;;5.87;;
20287;SDS011;10303;51.960;8.372;2023-03-03T03:38:54;10.50;;;5.27;;
20287;SDS011;10303;51.960;8.372;2023-03-03T03:41:21;9.97;;;5.43;;
20287;SDS011;10303;51.960;8.372;2023-03-03T03:43:46;14.30;;;6.37;;
20287;SDS011;10303;51.960;8.372;2023-03-03T03:46:13;9.73;;;5.27;;
20287;SDS011;10303;51.960;8.372;2023-03-03T03:48:40;14.43;;;6.93;;
20287;SDS011;10303;51.960;8.372;2023-03-03T03:51:09;10.47;;;5.80;;
20287;SDS011;10303;51.960;8.372;2023-03-03T03:53:37;10.57;;;5.57;;
20287;SDS011;10303;51.960;8.372;2023-03-03T03:56:03;13.87;;;5.03;;
20287;SDS011;10303;51.960;8.372;2023-03-03T03:58:30;10.60;;;5.67;;
20287;SDS011;10303;51.960;8.372;2023-03-03T04:01:00;8.90;;;4.30;;
20287;SDS011;10303;51.960;8.372;2023-03-03T04:03:29;15.27;;;5.97;;
20287;SDS011;10303;51.960;8.372;2023-03-03T04:05:55;18.10;;;6.70;;
20287;SDS011;10303;51.960;8.372;2023-03-03T04:08:21;12.97;;;6.20;;
20287;SDS011;10303;51.960;8.372;2023-03-03T04:10:47;17.47;;;6.23;;
20287;SDS011;10303;51.960;8.372;2023-03-03T04:13:14;12.63;;;5.57;;
20287;SDS011;10303;51.960;8.372;2023-03-03T04:15:40;12.93;;;6.10;;
20287;SDS011;10303;51.960;8.372;2023-03-03T04:18:06;13.53;;;6.90;;
20287;SDS011;10303;51.960;8.372;2023-03-03T04:20:32;17.43;;;6.40;;
20287;SDS011;10303;51.960;8.372;2023-03-03T04:22:58;14.50;;;6.03;;
20287;SDS011;10303;51.960;8.372;2023-03-03T04:25:25;14.70;;;6.30;;
20287;SDS011;10303;51.960;8.372;2023-03-03T04:27:52;13.97;;;6.17;;
20287;SDS011;10303;51.960;8.372;2023-03-03T04:30:20;9.27;;;5.17;;
20287;SDS011;10303;51.960;8.372;2023-03-03T04:32:48;8.73;;;3.90;;
20287;SDS011;10303;51.960;8.372;2023-03-03T04:35:18;10.00;;;4.20;;
20287;SDS011;10303;51.960;8.372;2023-03-03T04:37:44;10.10;;;4.80;;
20287;SDS011;10303;51.960;8.372;2023-03-03T04:40:11;14.67;;;5.13;;
20287;SDS011;10303;51.960;8.372;2023-03-03T04:42:39;14.30;;;5.23;;
20287;SDS011;10303;51.960;8.372;2023-03-03T04:45:07;7.03;;;4.50;;
20287;SDS011;10303;51.960;8.372;2023-03-03T04:47:34;11.83;;;4.63;;
20287;SDS011;10303;51.960;8.372;2023-03-03T04:50:00;9.77;;;4.90;;
20287;SDS011;10303;51.960;8.372;2023-03-03T04:52:29;11.67;;;4.43;;
20287;SDS011;10303;51.960;8.372;2023-03-03T04:54:55;10.87;;;4.90;;
20287;SDS011;10303;51.960;8.372;2023-03-03T04:57:21;12.80;;;4.10;;
20287;SDS011;10303;51.960;8.372;2023-03-03T04:59:48;9.33;;;5.37;;
20287;SDS011;10303;51.960;8.372;2023-03-03T05:02:14;13.27;;;5.93;;
20287;SDS011;10303;51.960;8.372;2023-03-03T05:04:40;10.83;;;4.30;;
20287;SDS011;10303;51.960;8.372;2023-03-03T05:07:05;12.37;;;5.13;;
20287;SDS011;10303;51.960;8.372;2023-03-03T05:09:32;10.80;;;4.93;;
20287;SDS011;10303;51.960;8.372;2023-03-03T05:11:58;13.30;;;4.37;;
20287;SDS011;10303;51.960;8.372;2023-03-03T05:14:25;15.97;;;5.77;;
20287;SDS011;10303;51.960;8.372;2023-03-03T05:16:52;14.97;;;6.50;;
20287;SDS011;10303;51.960;8.372;2023-03-03T05:19:18;11.27;;;5.07;;
20287;SDS011;10303;51.960;8.372;2023-03-03T05:21:44;20.53;;;7.57;;
20287;SDS011;10303;51.960;8.372;2023-03-03T05:24:11;17.33;;;6.40;;
20287;SDS011;10303;51.960;8.372;2023-03-03T05:26:39;17.80;;;8.17;;
20287;SDS011;10303;51.960;8.372;2023-03-03T05:29:05;15.60;;;6.57;;
20287;SDS011;10303;51.960;8.372;2023-03-03T05:31:33;13.20;;;6.47;;
20287;SDS011;10303;51.960;8.372;2023-03-03T05:33:59;18.13;;;6.47;;
20287;SDS011;10303;51.960;8.372;2023-03-03T05:36:25;21.13;;;7.57;;
20287;SDS011;10303;51.960;8.372;2023-03-03T05:38:51;25.77;;;7.83;;
20287;SDS011;10303;51.960;8.372;2023-03-03T05:41:17;15.03;;;5.53;;
20287;SDS011;10303;51.960;8.372;2023-03-03T05:43:43;12.60;;;6.80;;
20287;SDS011;10303;51.960;8.372;2023-03-03T05:46:09;16.40;;;6.37;;
20287;SDS011;10303;51.960;8.372;2023-03-03T05:48:35;21.20;;;7.27;;
20287;SDS011;10303;51.960;8.372;2023-03-03T05:51:01;11.37;;;5.10;;
20287;SDS011;10303;51.960;8.372;2023-03-03T05:53:27;21.37;;;7.80;;
20287;SDS011;10303;51.960;8.372;2023-03-03T05:55:54;13.60;;;6.23;;
20287;SDS011;10303;51.960;8.372;2023-03-03T05:58:20;15.77;;;5.13;;
20287;SDS011;10303;51.960;8.372;2023-03-03T06:00:46;18.47;;;6.90;;
20287;SDS011;10303;51.960;8.372;2023-03-03T06:03:12;15.83;;;6.20;;
20287;SDS011;10303;51.960;8.372;2023-03-03T06:05:38;10.47;;;5.00;;
20287;SDS011;10303;51.960;8.372;2023-03-03T06:08:04;12.67;;;4.70;;
20287;SDS011;10303;51.960;8.372;2023-03-03T06:10:30;23.73;;;7.30;;
20287;SDS011;10303;51.960;8.372;2023-03-03T06:12:59;17.40;;;7.53;;
20287;SDS011;10303;51.960;8.372;2023-03-03T06:15:25;18.83;;;6.80;;
20287;SDS011;10303;51.960;8.372;2023-03-03T06:17:51;17.60;;;6.60;;
20287;SDS011;10303;51.960;8.372;2023-03-03T06:20:17;15.07;;;5.40;;
20287;SDS011;10303;51.960;8.372;2023-03-03T06:22:44;11.83;;;5.60;;
20287;SDS011;10303;51.960;8.372;2023-03-03T06:25:09;15.30;;;5.93;;
20287;SDS011;10303;51.960;8.372;2023-03-03T06:27:35;16.00;;;5.67;;
20287;SDS011;10303;51.960;8.372;2023-03-03T06:30:01;17.60;;;6.37;;
20287;SDS011;10303;51.960;8.372;2023-03-03T06:32:28;22.33;;;6.70;;
20287;SDS011;10303;51.960;8.372;2023-03-03T06:34:54;17.47;;;6.57;;
20287;SDS011;10303;51.960;8.372;2023-03-03T06:37:19;17.73;;;6.70;;
20287;SDS011;10303;51.960;8.372;2023-03-03T06:39:45;12.13;;;4.97;;
20287;SDS011;10303;51.960;8.372;2023-03-03T06:42:11;16.43;;;6.10;;
20287;SDS011;10303;51.960;8.372;2023-03-03T06:44:37;11.30;;;5.23;;
20287;SDS011;10303;51.960;8.372;2023-03-03T06:47:03;12.03;;;5.23;;
20287;SDS011;10303;51.960;8.372;2023-03-03T06:49:30;16.23;;;6.77;;
20287;SDS011;10303;51.960;8.372;2023-03-03T06:51:57;21.07;;;6.60;;
20287;SDS011;10303;51.960;8.372;2023-03-03T06:54:27;16.37;;;5.93;;
20287;SDS011;10303;51.960;8.372;2023-03-03T06:56:56;12.43;;;4.97;;
20287;SDS011;10303;51.960;8.372;2023-03-03T06:59:25;16.40;;;6.13;;
20287;SDS011;10303;51.960;8.372;2023-03-03T07:01:52;20.13;;;7.07;;
20287;SDS011;10303;51.960;8.372;2023-03-03T07:04:29;14.93;;;6.10;;
20287;SDS011;10303;51.960;8.372;2023-03-03T07:07:13;15.60;;;5.97;;
20287;SDS011;10303;51.960;8.372;2023-03-03T07:09:45;16.03;;;6.03;;
20287;SDS011;10303;51.960;8.372;2023-03-03T07:12:15;15.57;;;5.50;;
20287;SDS011;10303;51.960;8.372;2023-03-03T07:14:49;14.93;;;5.97;;
20287;SDS011;10303;51.960;8.372;2023-03-03T07:17:21;13.93;;;5.27;;
20287;SDS011;10303;51.960;8.372;2023-03-03T07:19:49;13.77;;;5.77;;
20287;SDS011;10303;51.960;8.372;2023-03-03T07:22:17;16.90;;;5.97;;
20287;SDS011;10303;51.960;8.372;2023-03-03T07:24:47;16.23;;;6.10;;
20287;SDS011;10303;51.960;8.372;2023-03-03T07:27:26;21.97;;;8.37;;
20287;SDS011;10303;51.960;8.372;2023-03-03T07:32:51;22.83;;;6.07;;
20287;SDS011;10303;51.960;8.372;2023-03-03T07:41:39;14.77;;;6.60;;
20287;SDS011;10303;51.960;8.372;2023-03-03T07:43:59;16.20;;;5.73;;
20287;SDS011;10303;51.960;8.372;2023-03-03T07:46:41;12.17;;;5.53;;
20287;SDS011;10303;51.960;8.372;2023-03-03T07:51:59;15.10;;;5.93;;
20287;SDS011;10303;51.960;8.372;2023-03-03T07:54:42;24.77;;;7.47;;
20287;SDS011;10303;51.960;8.372;2023-03-03T08:02:42;23.27;;;8.80;;
20287;SDS011;10303;51.960;8.372;2023-03-03T08:10:51;30.90;;;10.90;;
20287;SDS011;10303;51.960;8.372;2023-03-03T08:13:20;27.67;;;8.77;;
20287;SDS011;10303;51.960;8.372;2023-03-03T08:18:43;23.03;;;9.27;;
20287;SDS011;10303;51.960;8.372;2023-03-03T08:21:19;25.00;;;8.43;;
20287;SDS011;10303;51.960;8.372;2023-03-03T08:23:48;25.73;;;8.23;;
20287;SDS011;10303;51.960;8.372;2023-03-03T08:26:16;28.90;;;9.77;;
20287;SDS011;10303;51.960;8.372;2023-03-03T08:28:44;19.53;;;7.50;;
20287;SDS011;10303;51.960;8.372;2023-03-03T08:31:11;15.50;;;5.90;;
20287;SDS011;10303;51.960;8.372;2023-03-03T08:33:37;15.93;;;6.23;;
20287;SDS011;10303;51.960;8.372;2023-03-03T08:36:04;20.37;;;7.27;;
20287;SDS011;10303;51.960;8.372;2023-03-03T08:38:31;16.27;;;6.27;;
20287;SDS011;10303;51.960;8.372;2023-03-03T08:40:58;19.70;;;6.27;;
20287;SDS011;10303;51.960;8.372;2023-03-03T08:43:24;15.57;;;6.33;;
20287;SDS011;10303;51.960;8.372;2023-03-03T08:45:51;21.87;;;8.33;;
20287;SDS011;10303;51.960;8.372;2023-03-03T08:48:22;18.97;;;7.03;;
20287;SDS011;10303;51.960;8.372;2023-03-03T08:50:48;20.20;;;6.80;;
20287;SDS011;10303;51.960;8.372;2023-03-03T08:53:14;22.90;;;7.83;;
20287;SDS011;10303;51.960;8.372;2023-03-03T08:55:42;22.17;;;7.57;;
20287;SDS011;10303;51.960;8.372;2023-03-03T08:58:08;20.77;;;7.67;;
20287;SDS011;10303;51.960;8.372;2023-03-03T09:00:34;21.60;;;7.43;;
20287;SDS011;10303;51.960;8.372;2023-03-03T09:03:01;17.73;;;6.67;;
20287;SDS011;10303;51.960;8.372;2023-03-03T09:05:28;15.57;;;6.07;;
20287;SDS011;10303;51.960;8.372;2023-03-03T09:07:54;17.70;;;7.20;;
20287;SDS011;10303;51.960;8.372;2023-03-03T09:10:21;18.13;;;7.30;;
20287;SDS011;10303;51.960;8.372;2023-03-03T09:12:59;15.23;;;6.70;;
20287;SDS011;10303;51.960;8.372;2023-03-03T09:15:36;15.20;;;5.60;;
20287;SDS011;10303;51.960;8.372;2023-03-03T09:18:29;18.47;;;7.07;;
20287;SDS011;10303;51.960;8.372;2023-03-03T09:21:00;18.60;;;7.47;;
20287;SDS011;10303;51.960;8.372;2023-03-03T09:23:28;22.40;;;7.33;;
20287;SDS011;10303;51.960;8.372;2023-03-03T09:31:41;21.30;;;8.07;;
20287;SDS011;10303;51.960;8.372;2023-03-03T09:34:23;19.43;;;9.00;;
20287;SDS011;10303;51.960;8.372;2023-03-03T09:37:10;21.27;;;8.67;;
20287;SDS011;10303;51.960;8.372;2023-03-03T09:39:48;19.07;;;7.43;;
20287;SDS011;10303;51.960;8.372;2023-03-03T09:50:56;17.43;;;7.93;;
20287;SDS011;10303;51.960;8.372;2023-03-03T09:59:22;18.47;;;7.43;;
20287;SDS011;10303;51.960;8.372;2023-03-03T10:05:28;15.43;;;6.93;;
20287;SDS011;10303;51.960;8.372;2023-03-03T10:11:10;17.73;;;7.63;;
20287;SDS011;10303;51.960;8.372;2023-03-03T10:14:05;23.70;;;9.30;;
20287;SDS011;10303;51.960;8.372;2023-03-03T10:22:46;14.00;;;6.07;;
20287;SDS011;10303;51.960;8.372;2023-03-03T10:25:21;19.50;;;7.20;;
20287;SDS011;10303;51.960;8.372;2023-03-03T10:43:18;14.80;;;6.40;;
20287;SDS011;10303;51.960;8.372;2023-03-03T11:03:50;17.43;;;7.17;;
20287;SDS011;10303;51.960;8.372;2023-03-03T11:12:31;15.63;;;7.00;;
20287;SDS011;10303;51.960;8.372;2023-03-03T11:15:28;18.73;;;6.40;;
20287;SDS011;10303;51.960;8.372;2023-03-03T11:18:18;16.43;;;7.77;;
20287;SDS011;10303;51.960;8.372;2023-03-03T11:22:05;19.57;;;9.60;;
20287;SDS011;10303;51.960;8.372;2023-03-03T11:27:18;29.77;;;12.27;;
20287;SDS011;10303;51.960;8.372;2023-03-03T11:32:50;27.03;;;10.43;;
20287;SDS011;10303;51.960;8.372;2023-03-03T11:44:28;26.23;;;9.13;;
20287;SDS011;10303;51.960;8.372;2023-03-03T11:52:49;21.27;;;8.20;;
20287;SDS011;10303;51.960;8.372;2023-03-03T11:55:38;26.70;;;9.33;;
20287;SDS011;10303;51.960;8.372;2023-03-03T11:58:12;25.47;;;11.17;;
20287;SDS011;10303;51.960;8.372;2023-03-03T12:03:55;22.90;;;8.77;;
20287;SDS011;10303;51.960;8.372;2023-03-03T12:09:39;25.47;;;10.00;;
20287;SDS011;10303;51.960;8.372;2023-03-03T12:12:23;16.57;;;8.50;;
20287;SDS011;10303;51.960;8.372;2023-03-03T12:15:03;22.50;;;9.63;;
20287;SDS011;10303;51.960;8.372;2023-03-03T12:17:42;21.27;;;9.73;;
20287;SDS011;10303;51.960;8.372;2023-03-03T12:26:01;19.80;;;8.53;;
20287;SDS011;10303;51.960;8.372;2023-03-03T12:28:38;17.20;;;7.50;;
20287;SDS011;10303;51.960;8.372;2023-03-03T12:31:13;18.37;;;7.70;;
20287;SDS011;10303;51.960;8.372;2023-03-03T12:42:30;21.53;;;8.47;;
20287;SDS011;10303;51.960;8.372;2023-03-03T12:48:11;20.27;;;9.53;;
20287;SDS011;10303;51.960;8.372;2023-03-03T12:50:53;28.23;;;10.60;;
20287;SDS011;10303;51.960;8.372;2023-03-03T12:53:59;19.37;;;8.93;;
20287;SDS011;10303;51.960;8.372;2023-03-03T12:59:48;19.37;;;7.73;;
20287;SDS011;10303;51.960;8.372;2023-03-03T13:14:09;20.40;;;9.47;;
20287;SDS011;10303;51.960;8.372;2023-03-03T13:17:05;17.83;;;8.03;;
20287;SDS011;10303;51.960;8.372;2023-03-03T13:19:51;17.33;;;8.57;;
20287;SDS011;10303;51.960;8.372;2023-03-03T13:22:32;19.73;;;8.87;;
20287;SDS011;10303;51.960;8.372;2023-03-03T13:27:51;17.93;;;8.30;;
20287;SDS011;10303;51.960;8.372;2023-03-03T13:30:31;19.43;;;8.20;;
20287;SDS011;10303;51.960;8.372;2023-03-03T13:33:23;18.40;;;6.77;;
20287;SDS011;10303;51.960;8.372;2023-03-03T13:35:57;15.10;;;7.47;;
20287;SDS011;10303;51.960;8.372;2023-03-03T13:38:30;15.43;;;7.03;;
20287;SDS011;10303;51.960;8.372;2023-03-03T13:44:17;16.10;;;7.30;;
20287;SDS011;10303;51.960;8.372;2023-03-03T13:46:58;11.07;;;6.10;;
20287;SDS011;10303;51.960;8.372;2023-03-03T13:49:44;16.50;;;7.70;;
20287;SDS011;10303;51.960;8.372;2023-03-03T13:52:35;16.23;;;7.60;;
20287;SDS011;10303;51.960;8.372;2023-03-03T13:55:43;12.27;;;5.97;;
20287;SDS011;10303;51.960;8.372;2023-03-03T14:01:47;16.03;;;7.33;;
20287;SDS011;10303;51.960;8.372;2023-03-03T14:04:28;12.20;;;6.23;;
20287;SDS011;10303;51.960;8.372;2023-03-03T14:07:58;11.30;;;5.90;;
20287;SDS011;10303;51.960;8.372;2023-03-03T14:10:34;17.00;;;6.47;;
20287;SDS011;10303;51.960;8.372;2023-03-03T14:13:20;16.17;;;7.33;;
20287;SDS011;10303;51.960;8.372;2023-03-03T14:24:53;15.53;;;6.83;;
20287;SDS011;10303;51.960;8.372;2023-03-03T14:27:27;11.77;;;6.33;;
20287;SDS011;10303;51.960;8.372;2023-03-03T14:33:15;12.70;;;6.93;;
20287;SDS011;10303;51.960;8.372;2023-03-03T14:35:50;13.13;;;6.23;;
20287;SDS011;10303;51.960;8.372;2023-03-03T14:41:05;11.43;;;5.43;;
20287;SDS011;10303;51.960;8.372;2023-03-03T14:43:36;12.80;;;6.63;;
20287;SDS011;10303;51.960;8.372;2023-03-03T14:49:02;10.33;;;5.90;;
20287;SDS011;10303;51.960;8.372;2023-03-03T14:52:04;10.47;;;5.40;;
20287;SDS011;10303;51.960;8.372;2023-03-03T14:54:47;11.50;;;5.73;;
20287;SDS011;10303;51.960;8.372;2023-03-03T15:05:28;11.23;;;5.63;;
20287;SDS011;10303;51.960;8.372;2023-03-03T15:07:56;12.80;;;5.97;;
20287;SDS011;10303;51.960;8.372;2023-03-03T15:16:29;8.87;;;4.33;;
20287;SDS011;10303;51.960;8.372;2023-03-03T15:21:27;14.17;;;6.97;;
20287;SDS011;10303;51.960;8.372;2023-03-03T15:24:02;13.77;;;7.20;;
20287;SDS011;10303;51.960;8.372;2023-03-03T15:26:58;15.47;;;7.60;;
20287;SDS011;10303;51.960;8.372;2023-03-03T15:29:42;18.70;;;8.60;;
20287;SDS011;10303;51.960;8.372;2023-03-03T15:35:19;21.87;;;10.03;;
20287;SDS011;10303;51.960;8.372;2023-03-03T15:38:02;21.77;;;9.57;;
20287;SDS011;10303;51.960;8.372;2023-03-03T15:40:59;25.80;;;11.33;;
20287;SDS011;10303;51.960;8.372;2023-03-03T15:55:19;25.50;;;11.83;;
20287;SDS011;10303;51.960;8.372;2023-03-03T15:58:23;28.90;;;11.63;;
20287;SDS011;10303;51.960;8.372;2023-03-03T16:01:11;19.30;;;9.70;;
20287;SDS011;10303;51.960;8.372;2023-03-03T16:03:49;20.50;;;8.90;;
20287;SDS011;10303;51.960;8.372;2023-03-03T16:06:50;19.70;;;9.37;;
20287;SDS011;10303;51.960;8.372;2023-03-03T16:09:48;25.33;;;9.60;;
20287;SDS011;10303;51.960;8.372;2023-03-03T16:13:03;21.77;;;9.73;;
20287;SDS011;10303;51.960;8.372;2023-03-03T16:22:08;21.50;;;9.63;;
20287;SDS011;10303;51.960;8.372;2023-03-03T16:28:04;24.27;;;8.60;;
20287;SDS011;10303;51.960;8.372;2023-03-03T16:30:57;16.93;;;7.67;;
20287;SDS011;10303;51.960;8.372;2023-03-03T16:33:36;17.70;;;8.77;;
20287;SDS011;10303;51.960;8.372;2023-03-03T16:42:33;19.27;;;8.60;;
20287;SDS011;10303;51.960;8.372;2023-03-03T17:00:04;10.07;;;4.50;;
20287;SDS011;10303;51.960;8.372;2023-03-03T17:05:13;13.37;;;6.43;;
20287;SDS011;10303;51.960;8.372;2023-03-03T17:08:00;14.77;;;8.50;;
20287;SDS011;10303;51.960;8.372;2023-03-03T17:10:58;18.03;;;7.73;;
20287;SDS011;10303;51.960;8.372;2023-03-03T17:14:01;14.17;;;6.70;;
20287;SDS011;10303;51.960;8.372;2023-03-03T17:22:56;10.50;;;4.70;;
20287;SDS011;10303;51.960;8.372;2023-03-03T17:25:54;13.30;;;5.03;;
20287;SDS011;10303;51.960;8.372;2023-03-03T17:29:10;9.53;;;4.93;;
20287;SDS011;10303;51.960;8.372;2023-03-03T17:35:26;10.40;;;5.00;;
20287;SDS011;10303;51.960;8.372;2023-03-03T17:44:01;11.57;;;5.10;;
20287;SDS011;10303;51.960;8.372;2023-03-03T17:47:15;6.00;;;4.00;;
20287;SDS011;10303;51.960;8.372;2023-03-03T17:52:41;12.90;;;5.57;;
20287;SDS011;10303;51.960;8.372;2023-03-03T17:56:18;9.10;;;5.00;;
20287;SDS011;10303;51.960;8.372;2023-03-03T18:07:38;11.90;;;6.10;;
20287;SDS011;10303;51.960;8.372;2023-03-03T18:13:48;11.77;;;5.67;;
20287;SDS011;10303;51.960;8.372;2023-03-03T18:22:46;6.47;;;4.03;;
20287;SDS011;10303;51.960;8.372;2023-03-03T18:25:18;12.90;;;5.03;;
20287;SDS011;10303;51.960;8.372;2023-03-03T18:30:28;6.53;;;4.27;;
20287;SDS011;10303;51.960;8.372;2023-03-03T18:33:15;7.60;;;4.27;;
20287;SDS011;10303;51.960;8.372;2023-03-03T18:36:13;9.10;;;4.40;;
20287;SDS011;10303;51.960;8.372;2023-03-03T18:39:04;9.00;;;4.17;;
20287;SDS011;10303;51.960;8.372;2023-03-03T18:42:03;10.20;;;5.00;;
20287;SDS011;10303;51.960;8.372;2023-03-03T18:44:34;12.77;;;5.97;;
20287;SDS011;10303;51.960;8.372;2023-03-03T18:47:01;8.77;;;4.20;;
20287;SDS011;10303;51.960;8.372;2023-03-03T18:52:18;8.77;;;4.73;;
20287;SDS011;10303;51.960;8.372;2023-03-03T18:57:37;10.13;;;4.33;;
20287;SDS011;10303;51.960;8.372;2023-03-03T19:02:55;7.03;;;4.03;;
20287;SDS011;10303;51.960;8.372;2023-03-03T19:05:25;9.90;;;4.57;;
20287;SDS011;10303;51.960;8.372;2023-03-03T19:10:49;12.33;;;5.67;;
20287;SDS011;10303;51.960;8.372;2023-03-03T19:16:00;9.73;;;5.43;;
20287;SDS011;10303;51.960;8.372;2023-03-03T19:18:32;11.87;;;6.10;;
20287;SDS011;10303;51.960;8.372;2023-03-03T19:21:29;11.17;;;4.87;;
20287;SDS011;10303;51.960;8.372;2023-03-03T19:29:53;11.33;;;5.53;;
20287;SDS011;10303;51.960;8.372;2023-03-03T19:35:56;7.70;;;4.17;;
20287;SDS011;10303;51.960;8.372;2023-03-03T19:47:30;9.37;;;5.03;;
20287;SDS011;10303;51.960;8.372;2023-03-03T19:50:19;8.67;;;5.70;;
20287;SDS011;10303;51.960;8.372;2023-03-03T19:53:19;7.07;;;4.20;;
20287;SDS011;10303;51.960;8.372;2023-03-03T20:07:47;7.87;;;4.57;;
20287;SDS011;10303;51.960;8.372;2023-03-03T20:10:40;12.30;;;6.70;;
20287;SDS011;10303;51.960;8.372;2023-03-03T20:16:43;10.83;;;5.07;;
20287;SDS011;10303;51.960;8.372;2023-03-03T20:39:59;10.50;;;5.27;;
20287;SDS011;10303;51.960;8.372;2023-03-03T20:42:54;9.70;;;5.57;;
20287;SDS011;10303;51.960;8.372;2023-03-03T20:51:42;10.23;;;5.77;;
20287;SDS011;10303;51.960;8.372;2023-03-03T20:56:59;13.90;;;6.37;;
20287;SDS011;10303;51.960;8.372;2023-03-03T20:59:54;6.77;;;4.00;;
20287;SDS011;10303;51.960;8.372;2023-03-03T21:05:18;11.00;;;5.53;;
20287;SDS011;10303;51.960;8.372;2023-03-03T21:07:59;12.77;;;5.10;;
20287;SDS011;10303;51.960;8.372;2023-03-03T21:10:36;11.00;;;5.90;;
20287;SDS011;10303;51.960;8.372;2023-03-03T21:18:54;9.37;;;5.33;;
20287;SDS011;10303;51.960;8.372;2023-03-03T21:21:27;11.00;;;5.10;;
20287;SDS011;10303;51.960;8.372;2023-03-03T21:23:59;9.20;;;4.87;;
20287;SDS011;10303;51.960;8.372;2023-03-03T21:29:23;10.37;;;5.43;;
20287;SDS011;10303;51.960;8.372;2023-03-03T21:32:02;11.60;;;5.30;;
20287;SDS011;10303;51.960;8.372;2023-03-03T21:34:37;12.87;;;6.47;;
20287;SDS011;10303;51.960;8.372;2023-03-03T21:37:09;9.20;;;5.80;;
20287;SDS011;10303;51.960;8.372;2023-03-03T21:39:40;10.03;;;5.17;;
20287;SDS011;10303;51.960;8.372;2023-03-03T21:42:17;10.37;;;5.77;;
20287;SDS011;10303;51.960;8.372;2023-03-03T21:45:09;11.60;;;5.23;;
20287;SDS011;10303;51.960;8.372;2023-03-03T21:47:37;13.90;;;6.30;;
20287;SDS011;10303;51.960;8.372;2023-03-03T21:50:03;15.53;;;6.97;;
20287;SDS011;10303;51.960;8.372;2023-03-03T21:52:31;14.97;;;7.83;;